Grafton, North Dakota
Current Conditions -  °F | °C
As of 12:35 AM on Wednesday 28 Jan 2015 (Local Time) from K2C8 Reporting Station
Haze Haze  
Wind Chill: 24°   Ceiling: 100
Heat Index: 32°   Visibility: 0.75mi
Dew Point: 32°   Wind: 10mph
Humidity: 100%   Direction: 170°S
Pressure: 29.87"   Gusts: NA
Location:  48.41°N, 97.41°W
Report Text: K2C8 280635Z AUTO 17009KT 3/4SM BR OVC001 00/00 A2987 RMK AO2
Loading
Personal Weather Stations






























Interactive Weather Map New forecast layout! Learn more

10-Day Weather Forecast

Advertisements
Track Severe Weather on mobile